Grove, OK

9:17 PM CST on February 05, 2016 (GMT -0600)
Grove Municipal

Weather History for KGMJ - April, 2013

Change the Weather History Date:

Monday, April 8, 2013

  Actual Average (KSLG) Record (KSLG)
Temperature  
Mean Temperature 68 °F -  
Max Temperature 75 °F 63 °F 87 °F (2011)
Min Temperature 62 °F 45 °F 19 °F (2007)
Cooling Degree Days 4    
Growing Degree Days 18 (Base 50)    
Moisture  
Dew Point 59 °F    
Average Humidity 74    
Maximum Humidity 100    
Minimum Humidity 61    
Precipitation  
Precipitation 0.00 in - - ()
Sea Level Pressure  
Sea Level Pressure 29.75 in    
Wind  
Wind Speed 12 mph (SSE)    
Max Wind Speed 21 mph    
Max Gust Speed 30 mph    
Visibility 10 miles    
Events Rain , Thunderstorm    
Averages and records for this station are not official NWS values.
T = Trace of Precipitation, MM = Missing Value Source: NWS Daily Summary

Daily Weather History Graph

Daily Weather History Graph

Search for Another Location

Airport or City:

Trip Planner

Search our weather history database for the weather conditions in past years. The results will help you decide how hot, cold, wet, or windy it might be!

Date:

Astronomy

Apr. 08, 2013 Rise Set
Actual Time 6:54 AM CDT 7:47 PM CDT
Civil Twilight 6:28 AM CDT 8:13 PM CDT
Nautical Twilight 5:57 AM CDT 8:45 PM CDT
Astronomical Twilight 5:25 AM CDT 9:17 PM CDT
Moon 5:42 AM CDT (4/8) 6:24 PM CDT (4/8)
Length of Visible Light 13h 45m
Length of Day
12h 52m
Waning Crescent, 3% of the Moon is Illuminated
Apr 8
Waning Crescent
Apr 10
New
Apr 18
First Quarter
Apr 25
Full
May 2
Last Quarter

Hourly Weather History & Observations

Time (CDT) Temp. Dew Point Humidity Pressure Visibility Wind Dir Wind Speed Gust Speed Precip Events Conditions
12:15 AM 68.0 °F 55.4 °F 64% 29.79 in 10.0 mi South 12.7 mph 19.6 mph N/A   Overcast
12:35 AM 68.0 °F 55.4 °F 64% 29.78 in 10.0 mi South 13.8 mph 19.6 mph N/A   Mostly Cloudy
12:55 AM 68.0 °F 55.4 °F 64% 29.78 in 10.0 mi South 11.5 mph 18.4 mph N/A   Clear
1:15 AM 68.0 °F 55.4 °F 64% 29.77 in 10.0 mi South 13.8 mph - N/A   Clear
1:35 AM 68.0 °F 55.4 °F 64% 29.77 in 10.0 mi SSE 6.9 mph - N/A   Scattered Clouds
1:55 AM 64.4 °F 55.4 °F 73% 29.77 in 10.0 mi SE 6.9 mph - N/A   Scattered Clouds
2:15 AM 64.4 °F 55.4 °F 73% 29.76 in 10.0 mi ESE 4.6 mph - N/A   Scattered Clouds
2:35 AM 64.4 °F 55.4 °F 73% 29.75 in 10.0 mi SE 5.8 mph - N/A   Mostly Cloudy
2:55 AM 64.4 °F 55.4 °F 73% 29.74 in 10.0 mi SE 4.6 mph - N/A   Overcast
3:15 AM 64.4 °F 55.4 °F 73% 29.74 in 10.0 mi South 4.6 mph - N/A   Mostly Cloudy
3:35 AM 64.4 °F 55.4 °F 73% 29.73 in 10.0 mi SSE 6.9 mph - N/A   Scattered Clouds
3:55 AM 64.4 °F 55.4 °F 73% 29.73 in 10.0 mi South 9.2 mph - N/A Thunderstorm Scattered Clouds
4:15 AM 64.4 °F 55.4 °F 73% 29.71 in 10.0 mi SSE 10.4 mph - N/A Rain , Thunderstorm Light Thunderstorms and Rain
4:35 AM 64.4 °F 57.2 °F 77% 29.74 in 10.0 mi South 9.2 mph - N/A Rain , Thunderstorm Thunderstorms and Rain
4:55 AM 62.6 °F 62.6 °F 100% 29.74 in 7.0 mi South 11.5 mph - N/A Rain , Thunderstorm Thunderstorms and Rain
5:15 AM 62.6 °F 62.6 °F 100% 29.73 in 10.0 mi South 15.0 mph 20.7 mph N/A Rain Light Rain
5:35 AM 62.6 °F 62.6 °F 100% 29.74 in 7.0 mi South 16.1 mph - N/A   Drizzle
5:55 AM 62.6 °F 62.6 °F 100% 29.74 in 10.0 mi SSE 10.4 mph - N/A   Light Drizzle
6:15 AM 62.6 °F 62.6 °F 100% 29.74 in 10.0 mi SSE 8.1 mph - N/A   Overcast
6:35 AM 64.4 °F 60.8 °F 88% 29.75 in 10.0 mi SSE 8.1 mph - N/A   Overcast
6:55 AM 64.4 °F 59.0 °F 83% 29.75 in 10.0 mi SSE 13.8 mph 20.7 mph N/A   Overcast
7:15 AM 64.4 °F 59.0 °F 83% 29.76 in 10.0 mi SSE 10.4 mph 19.6 mph N/A   Mostly Cloudy
7:35 AM 64.4 °F 59.0 °F 83% 29.77 in 10.0 mi SSE 15.0 mph 19.6 mph N/A   Mostly Cloudy
7:55 AM 64.4 °F 59.0 °F 83% 29.77 in 10.0 mi SSE 16.1 mph 21.9 mph N/A   Overcast
8:15 AM 64.4 °F 59.0 °F 83% 29.77 in 10.0 mi SSE 16.1 mph 21.9 mph N/A   Overcast
8:35 AM 64.4 °F 59.0 °F 83% 29.77 in 10.0 mi SSE 16.1 mph 21.9 mph N/A   Overcast
8:55 AM 64.4 °F 59.0 °F 83% 29.77 in 10.0 mi SSE 17.3 mph 27.6 mph N/A   Mostly Cloudy
9:15 AM 64.4 °F 59.0 °F 83% 29.77 in 10.0 mi SSE 18.4 mph 28.8 mph N/A   Mostly Cloudy
9:35 AM 64.4 °F 59.0 °F 83% 29.78 in 10.0 mi South 17.3 mph 26.5 mph N/A   Overcast
9:55 AM 66.2 °F 59.0 °F 78% 29.79 in 10.0 mi South 17.3 mph 23.0 mph N/A   Overcast
10:15 AM 66.2 °F 59.0 °F 78% 29.79 in 10.0 mi South 17.3 mph 23.0 mph N/A   Overcast
10:35 AM 66.2 °F 59.0 °F 78% 29.80 in 10.0 mi South 18.4 mph - N/A   Overcast
10:55 AM 68.0 °F 59.0 °F 73% 29.80 in 10.0 mi South 19.6 mph 25.3 mph N/A   Overcast
11:15 AM 69.8 °F 60.8 °F 73% 29.79 in 10.0 mi South 17.3 mph 24.2 mph N/A   Overcast
11:35 AM 69.8 °F 59.0 °F 68% 29.79 in 10.0 mi South 20.7 mph 29.9 mph N/A   Overcast
11:55 AM 69.8 °F 60.8 °F 73% 29.78 in 10.0 mi South 19.6 mph 29.9 mph N/A   Scattered Clouds
12:15 PM 69.8 °F 59.0 °F 68% 29.78 in 10.0 mi South 20.7 mph 28.8 mph N/A   Clear
12:35 PM 71.6 °F 60.8 °F 69% 29.78 in 10.0 mi SSE 19.6 mph 25.3 mph N/A   Scattered Clouds
12:55 PM 71.6 °F 59.0 °F 64% 29.77 in 10.0 mi South 18.4 mph 26.5 mph N/A   Mostly Cloudy
1:15 PM 73.4 °F 60.8 °F 65% 29.76 in 10.0 mi South 15.0 mph 25.3 mph N/A   Overcast
1:35 PM 71.6 °F 60.8 °F 69% 29.75 in 10.0 mi SSE 17.3 mph 24.2 mph N/A   Overcast
1:55 PM 71.6 °F 59.0 °F 64% 29.74 in 10.0 mi SSE 19.6 mph 24.2 mph N/A   Overcast
2:15 PM 73.4 °F 60.8 °F 65% 29.73 in 10.0 mi SSE 18.4 mph 26.5 mph N/A   Overcast
2:35 PM 73.4 °F 60.8 °F 65% 29.73 in 10.0 mi SSE 15.0 mph 25.3 mph N/A   Overcast
2:55 PM 75.2 °F 60.8 °F 61% 29.73 in 10.0 mi South 19.6 mph 23.0 mph N/A   Mostly Cloudy
3:15 PM 71.6 °F 59.0 °F 64% 29.74 in 10.0 mi SSE 15.0 mph 20.7 mph N/A   Mostly Cloudy
3:35 PM 71.6 °F 59.0 °F 64% 29.74 in 10.0 mi SSE 13.8 mph 19.6 mph N/A   Overcast
3:55 PM 69.8 °F 59.0 °F 68% 29.73 in 10.0 mi SSE 10.4 mph 17.3 mph N/A   Overcast
4:15 PM 69.8 °F 60.8 °F 73% 29.73 in 10.0 mi SE 9.2 mph - N/A   Overcast
4:35 PM 69.8 °F 60.8 °F 73% 29.73 in 10.0 mi SE 11.5 mph - N/A   Overcast
4:55 PM 69.8 °F 60.8 °F 73% 29.72 in 10.0 mi SE 9.2 mph - N/A   Overcast
5:15 PM 69.8 °F 60.8 °F 73% 29.72 in 10.0 mi ESE 8.1 mph - N/A   Overcast
5:35 PM 71.6 °F 60.8 °F 69% 29.72 in 10.0 mi ESE 9.2 mph - N/A   Overcast
5:55 PM 71.6 °F 60.8 °F 69% 29.72 in 10.0 mi SE 8.1 mph - N/A   Overcast
6:15 PM 71.6 °F 60.8 °F 69% 29.72 in 10.0 mi SE 9.2 mph - N/A   Overcast
6:35 PM 71.6 °F 60.8 °F 69% 29.72 in 10.0 mi SE 8.1 mph - N/A   Overcast
6:55 PM 71.6 °F 60.8 °F 69% 29.73 in 10.0 mi SE 6.9 mph - N/A   Overcast
7:15 PM 71.6 °F 60.8 °F 69% 29.73 in 10.0 mi SE 6.9 mph - N/A   Overcast
7:35 PM 71.6 °F 60.8 °F 69% 29.73 in 10.0 mi SE 5.8 mph - N/A   Overcast
7:55 PM 71.6 °F 60.8 °F 69% 29.73 in 10.0 mi SE 6.9 mph - N/A   Overcast
8:15 PM 71.6 °F 60.8 °F 69% 29.73 in 10.0 mi SE 4.6 mph - N/A   Overcast
8:35 PM 69.8 °F 60.8 °F 73% 29.73 in 10.0 mi SE 8.1 mph - N/A   Mostly Cloudy
8:55 PM 69.8 °F 60.8 °F 73% 29.73 in 10.0 mi SE 6.9 mph - N/A   Mostly Cloudy
9:15 PM 68.0 °F 60.8 °F 78% 29.73 in 10.0 mi SE 8.1 mph - N/A   Scattered Clouds
9:35 PM 68.0 °F 60.8 °F 78% 29.73 in 10.0 mi SE 8.1 mph - N/A   Scattered Clouds
9:55 PM 68.0 °F 59.0 °F 73% 29.73 in 10.0 mi SE 6.9 mph - N/A   Clear
10:15 PM 68.0 °F 59.0 °F 73% 29.73 in 10.0 mi ESE 6.9 mph - N/A   Scattered Clouds
10:35 PM 68.0 °F 59.0 °F 73% 29.72 in 10.0 mi SE 6.9 mph - N/A   Mostly Cloudy
10:55 PM 68.0 °F 59.0 °F 73% 29.73 in 10.0 mi SE 6.9 mph - N/A   Overcast
11:15 PM 68.0 °F 59.0 °F 73% 29.73 in 10.0 mi SE 5.8 mph - N/A   Overcast
11:35 PM 69.8 °F 59.0 °F 68% 29.73 in 10.0 mi ESE 5.8 mph - N/A   Overcast
11:55 PM 68.0 °F 59.0 °F 73% 29.72 in 10.0 mi ESE 5.8 mph - N/A   Overcast